Time;durP1;ratioP1;P1;durP2;ratioP2;P2;SDS_P1;SDS_P2;PMS_P1;PMS_P2;Temp;Humidity;BMP_temperature;BMP_pressure;BME280_temperature;BME280_humidity;BME280_pressure;Samples;Min_cycle;Max_cycle;Signal;HPM_P1;HPM_P2
2021/11/26 00:01:57;;;;;;;46.25;24.60;;;;;;;;;;5033555;28;20209;-80
2021/11/26 00:04:23;;;;;;;52.63;24.63;;;;;;;;;;5033497;28;20202;-80
2021/11/26 00:06:49;;;;;;;54.75;27.10;;;;;;;;;;5032435;28;20178;-82
2021/11/26 00:09:16;;;;;;;56.27;25.50;;;;;;;;;;5033378;28;20176;-80
2021/11/26 00:11:42;;;;;;;54.95;28.10;;;;;;;;;;5032256;28;20433;-80
2021/11/26 00:16:43;;;;;;;50.63;25.15;;;;;;;;;;5033469;28;20560;-82
2021/11/26 00:19:10;;;;;;;44.53;23.48;;;;;;;;;;5033363;28;20534;-79
2021/11/26 00:21:37;;;;;;;45.38;24.58;;;;;;;;;;5033310;28;20217;-82
2021/11/26 00:24:07;;;;;;;47.35;24.98;;;;;;;;;;5032731;28;20175;-80
2021/11/26 00:26:34;;;;;;;58.38;25.80;;;;;;;;;;5033295;28;20181;-83
2021/11/26 00:29:00;;;;;;;53.97;23.73;;;;;;;;;;5033422;28;20213;-82
2021/11/26 00:31:26;;;;;;;47.03;25.88;;;;;;;;;;5033295;28;20209;-82
2021/11/26 00:33:52;;;;;;;49.13;23.13;;;;;;;;;;5033551;28;20170;-80
2021/11/26 00:36:18;;;;;;;55.70;25.08;;;;;;;;;;5033407;28;20240;-80
2021/11/26 00:38:44;;;;;;;51.47;25.52;;;;;;;;;;5032189;28;20192;-80
2021/11/26 00:41:10;;;;;;;51.53;25.27;;;;;;;;;;5031674;28;20229;-80
2021/11/26 00:43:36;;;;;;;56.47;25.30;;;;;;;;;;5033302;28;20204;-81
2021/11/26 00:46:02;;;;;;;50.00;25.05;;;;;;;;;;5033073;28;20236;-80
2021/11/26 00:48:28;;;;;;;59.13;24.63;;;;;;;;;;5033108;28;20577;-80
2021/11/26 00:50:54;;;;;;;53.10;26.55;;;;;;;;;;5032830;28;20201;-80
2021/11/26 00:53:20;;;;;;;51.73;24.63;;;;;;;;;;5033189;28;20186;-81
2021/11/26 00:55:47;;;;;;;53.92;24.80;;;;;;;;;;5033073;28;20423;-80
2021/11/26 00:58:13;;;;;;;52.90;24.52;;;;;;;;;;5033034;28;20186;-82
2021/11/26 01:00:39;;;;;;;51.30;24.30;;;;;;;;;;5032599;28;20264;-81
2021/11/26 01:03:06;;;;;;;50.05;23.42;;;;;;;;;;5033086;28;20826;-83
2021/11/26 01:05:32;;;;;;;51.70;23.48;;;;;;;;;;5031693;28;20206;-82
2021/11/26 01:07:58;;;;;;;44.08;23.77;;;;;;;;;;5032944;28;20174;-81
2021/11/26 01:10:25;;;;;;;53.45;25.92;;;;;;;;;;5032476;28;20200;-79
2021/11/26 01:12:52;;;;;;;47.33;22.77;;;;;;;;;;5032838;28;20188;-80
2021/11/26 01:15:19;;;;;;;44.80;23.92;;;;;;;;;;5032962;28;20178;-80
2021/11/26 01:17:45;;;;;;;48.65;23.00;;;;;;;;;;5032790;28;20190;-82
2021/11/26 01:20:13;;;;;;;46.17;23.08;;;;;;;;;;5032457;28;20198;-81
2021/11/26 01:22:39;;;;;;;49.22;22.77;;;;;;;;;;5032738;28;20181;-80
2021/11/26 01:25:06;;;;;;;49.63;22.70;;;;;;;;;;5032815;28;20224;-80
2021/11/26 01:27:32;;;;;;;49.33;23.25;;;;;;;;;;5032998;28;20519;-81
2021/11/26 01:29:58;;;;;;;47.00;21.83;;;;;;;;;;5032401;28;20285;-81
2021/11/26 01:32:24;;;;;;;41.60;22.60;;;;;;;;;;5032813;28;20232;-80
2021/11/26 01:34:50;;;;;;;55.00;24.70;;;;;;;;;;5032655;28;20190;-79
2021/11/26 01:37:16;;;;;;;45.35;23.13;;;;;;;;;;5035836;28;20182;-81
2021/11/26 01:39:42;;;;;;;51.03;22.60;;;;;;;;;;5035030;28;20614;-79
2021/11/26 01:42:08;;;;;;;43.78;22.98;;;;;;;;;;5036438;28;20244;-80
2021/11/26 01:44:36;;;;;;;45.53;23.08;;;;;;;;;;5018723;28;20616;-82
2021/11/26 01:47:02;;;;;;;38.47;20.27;;;;;;;;;;5035228;28;20185;-80
2021/11/26 01:49:28;;;;;;;44.00;21.63;;;;;;;;;;5034948;28;20600;-80
2021/11/26 01:51:54;;;;;;;35.88;19.88;;;;;;;;;;5036188;28;20194;-80
2021/11/26 01:54:20;;;;;;;42.63;23.00;;;;;;;;;;5036186;28;20194;-82
2021/11/26 01:56:46;;;;;;;39.80;20.60;;;;;;;;;;5036072;28;20186;-80
2021/11/26 01:59:12;;;;;;;47.30;22.60;;;;;;;;;;5035795;28;20556;-81
2021/11/26 02:01:38;;;;;;;40.63;21.30;;;;;;;;;;5034866;28;20437;-80
2021/11/26 02:04:04;;;;;;;41.08;20.65;;;;;;;;;;5035997;28;20514;-82
2021/11/26 02:06:30;;;;;;;42.08;20.17;;;;;;;;;;5035952;28;20182;-82
2021/11/26 02:08:56;;;;;;;47.30;22.08;;;;;;;;;;5034563;28;20643;-82
2021/11/26 02:11:22;;;;;;;39.85;21.38;;;;;;;;;;5035406;28;20194;-80
2021/11/26 02:13:48;;;;;;;43.30;20.98;;;;;;;;;;5035797;28;20178;-81
2021/11/26 02:16:14;;;;;;;45.25;19.17;;;;;;;;;;5034447;28;20207;-81
2021/11/26 02:18:40;;;;;;;37.97;20.55;;;;;;;;;;5034374;28;20278;-81
2021/11/26 02:21:06;;;;;;;34.40;19.88;;;;;;;;;;5035054;28;20198;-79
2021/11/26 02:23:32;;;;;;;36.50;20.20;;;;;;;;;;5034440;28;20260;-80
2021/11/26 02:25:58;;;;;;;36.65;19.02;;;;;;;;;;5035535;28;20301;-82
2021/11/26 02:28:25;;;;;;;37.75;17.80;;;;;;;;;;5035644;28;20177;-82
2021/11/26 02:30:51;;;;;;;41.13;19.90;;;;;;;;;;5035220;28;20268;-80
2021/11/26 02:33:18;;;;;;;45.50;22.17;;;;;;;;;;5035342;28;20596;-79
2021/11/26 02:35:47;;;;;;;42.03;20.85;;;;;;;;;;5034123;28;20495;-80
2021/11/26 02:38:15;;;;;;;39.15;20.40;;;;;;;;;;5035491;28;20650;-81
2021/11/26 02:40:43;;;;;;;35.63;20.52;;;;;;;;;;5034129;28;20229;-82
2021/11/26 02:43:10;;;;;;;38.58;18.65;;;;;;;;;;5035312;28;20209;-79
2021/11/26 02:45:38;;;;;;;36.90;19.23;;;;;;;;;;5035404;28;20213;-81
2021/11/26 02:48:04;;;;;;;37.20;18.60;;;;;;;;;;5034675;28;20177;-81
2021/11/26 02:50:32;;;;;;;51.28;21.67;;;;;;;;;;5034973;28;20254;-80
2021/11/26 02:52:59;;;;;;;35.08;17.35;;;;;;;;;;5035078;28;20169;-81
2021/11/26 02:55:26;;;;;;;37.08;18.55;;;;;;;;;;5035017;28;20549;-81
2021/11/26 02:57:52;;;;;;;35.75;18.70;;;;;;;;;;5035150;28;20178;-80
2021/11/26 03:00:20;;;;;;;33.20;17.45;;;;;;;;;;5034671;28;20705;-81
2021/11/26 03:02:46;;;;;;;36.63;19.02;;;;;;;;;;5035176;28;20193;-78
2021/11/26 03:05:12;;;;;;;40.75;18.73;;;;;;;;;;5034925;28;20218;-81
2021/11/26 03:07:39;;;;;;;34.72;19.17;;;;;;;;;;5033593;28;20172;-80
2021/11/26 03:10:06;;;;;;;42.42;21.60;;;;;;;;;;5034410;28;20200;-80
2021/11/26 03:12:32;;;;;;;43.38;18.98;;;;;;;;;;5034844;28;20174;-79
2021/11/26 03:14:58;;;;;;;43.40;18.35;;;;;;;;;;5034708;28;20186;-81
2021/11/26 03:17:25;;;;;;;42.25;18.98;;;;;;;;;;5034387;28;20247;-81
2021/11/26 03:19:51;;;;;;;42.78;20.17;;;;;;;;;;5032795;28;20193;-79
2021/11/26 03:22:17;;;;;;;36.38;19.50;;;;;;;;;;5034450;28;20541;-81
2021/11/26 03:24:43;;;;;;;51.10;20.02;;;;;;;;;;5033090;28;20713;-81
2021/11/26 03:27:09;;;;;;;37.83;18.40;;;;;;;;;;5033142;28;20178;-81
2021/11/26 03:29:36;;;;;;;36.85;19.00;;;;;;;;;;5034124;28;20185;-81
2021/11/26 03:32:01;;;;;;;36.63;16.35;;;;;;;;;;5034438;28;20174;-81
2021/11/26 03:34:28;;;;;;;41.45;19.63;;;;;;;;;;5034508;28;20325;-80
2021/11/26 03:36:54;;;;;;;36.88;19.13;;;;;;;;;;5034256;28;20181;-78
2021/11/26 03:39:20;;;;;;;34.72;17.85;;;;;;;;;;5033961;28;20196;-79
2021/11/26 03:41:46;;;;;;;30.85;18.58;;;;;;;;;;5032669;28;20290;-81
2021/11/26 03:44:12;;;;;;;37.80;18.55;;;;;;;;;;5034006;28;20171;-80
2021/11/26 03:46:38;;;;;;;35.33;17.95;;;;;;;;;;5032613;28;20630;-79
2021/11/26 03:49:04;;;;;;;31.35;18.35;;;;;;;;;;5034090;28;20172;-79
2021/11/26 03:51:30;;;;;;;40.97;18.40;;;;;;;;;;5033910;28;20273;-82
2021/11/26 03:53:56;;;;;;;35.60;20.70;;;;;;;;;;5034078;28;20209;-80
2021/11/26 03:56:22;;;;;;;40.30;19.70;;;;;;;;;;5032777;28;20218;-81
2021/11/26 03:58:48;;;;;;;29.58;17.88;;;;;;;;;;5033912;28;20409;-79
2021/11/26 04:01:14;;;;;;;29.00;16.03;;;;;;;;;;5033417;28;20200;-79
2021/11/26 04:03:40;;;;;;;40.43;17.77;;;;;;;;;;5033790;28;20471;-80
2021/11/26 04:06:06;;;;;;;30.70;17.70;;;;;;;;;;5033508;28;20504;-79
2021/11/26 04:08:32;;;;;;;32.87;17.90;;;;;;;;;;5033774;28;20252;-82
2021/11/26 04:10:58;;;;;;;31.30;19.10;;;;;;;;;;5033225;28;20830;-80
2021/11/26 04:13:24;;;;;;;36.25;17.13;;;;;;;;;;5033590;28;20174;-79
2021/11/26 04:15:50;;;;;;;30.25;17.52;;;;;;;;;;5033495;28;20265;-81
2021/11/26 04:18:16;;;;;;;29.07;15.80;;;;;;;;;;5033368;28;20208;-80
2021/11/26 04:20:43;;;;;;;28.05;15.85;;;;;;;;;;5033041;28;20432;-79
2021/11/26 04:23:09;;;;;;;33.05;16.13;;;;;;;;;;5032158;28;20231;-81
2021/11/26 04:25:35;;;;;;;28.92;15.32;;;;;;;;;;5033369;28;20200;-81
2021/11/26 04:28:02;;;;;;;31.88;16.98;;;;;;;;;;5032060;28;20174;-81
2021/11/26 04:30:29;;;;;;;26.48;15.45;;;;;;;;;;5032939;28;20560;-82
2021/11/26 04:32:55;;;;;;;28.20;16.50;;;;;;;;;;5033423;28;20181;-79
2021/11/26 04:35:21;;;;;;;26.53;15.93;;;;;;;;;;5033364;28;20178;-79
2021/11/26 04:37:47;;;;;;;24.23;15.63;;;;;;;;;;5033467;28;20416;-80
2021/11/26 04:40:14;;;;;;;25.85;15.52;;;;;;;;;;5033027;28;20192;-80
2021/11/26 04:42:41;;;;;;;25.52;15.20;;;;;;;;;;5033670;28;20540;-80
2021/11/26 04:45:09;;;;;;;27.27;14.68;;;;;;;;;;5033319;28;20205;-80
2021/11/26 04:47:35;;;;;;;22.45;14.98;;;;;;;;;;5033464;28;20197;-80
2021/11/26 04:50:02;;;;;;;23.48;13.20;;;;;;;;;;5032891;28;20194;-80
2021/11/26 04:52:28;;;;;;;20.40;14.88;;;;;;;;;;5033441;28;20194;-79
2021/11/26 04:54:54;;;;;;;20.35;14.68;;;;;;;;;;5032110;28;20177;-80
2021/11/26 04:57:20;;;;;;;20.40;13.77;;;;;;;;;;5033444;28;20185;-79
2021/11/26 04:59:46;;;;;;;24.35;15.50;;;;;;;;;;5032934;28;20180;-79
2021/11/26 05:02:12;;;;;;;21.55;14.07;;;;;;;;;;5033215;28;20670;-80
2021/11/26 05:04:38;;;;;;;16.23;12.60;;;;;;;;;;5031862;28;20216;-79
2021/11/26 05:07:04;;;;;;;22.80;14.40;;;;;;;;;;5033604;28;20201;-80
2021/11/26 05:09:30;;;;;;;23.40;13.55;;;;;;;;;;5033268;28;20408;-79
2021/11/26 05:11:57;;;;;;;23.20;16.60;;;;;;;;;;5036339;28;20201;-79
2021/11/26 05:14:24;;;;;;;25.20;13.75;;;;;;;;;;5037189;28;20166;-79
2021/11/26 05:16:50;;;;;;;30.95;16.15;;;;;;;;;;5037257;28;20261;-78
2021/11/26 05:19:17;;;;;;;21.58;15.02;;;;;;;;;;5036806;28;20264;-80
2021/11/26 05:21:43;;;;;;;25.83;15.07;;;;;;;;;;5037018;28;20236;-79
2021/11/26 05:24:11;;;;;;;27.58;14.45;;;;;;;;;;5035679;28;20170;-80
2021/11/26 05:26:37;;;;;;;25.55;15.18;;;;;;;;;;5036661;28;20577;-80
2021/11/26 05:29:03;;;;;;;25.48;15.73;;;;;;;;;;5036648;28;20203;-79
2021/11/26 05:31:35;;;;;;;23.17;15.90;;;;;;;;;;5036773;28;20198;-80
2021/11/26 05:34:01;;;;;;;19.67;13.82;;;;;;;;;;5037167;28;20409;-79
2021/11/26 05:36:27;;;;;;;25.43;16.40;;;;;;;;;;5035760;28;20193;-80
2021/11/26 05:38:53;;;;;;;24.03;15.47;;;;;;;;;;5036952;28;20451;-79
2021/11/26 05:41:19;;;;;;;25.93;14.70;;;;;;;;;;5035101;28;20842;-80
2021/11/26 05:43:45;;;;;;;24.77;16.23;;;;;;;;;;5036367;28;20421;-80
2021/11/26 05:46:11;;;;;;;23.27;15.40;;;;;;;;;;5035568;28;20565;-80
2021/11/26 05:48:37;;;;;;;26.67;17.15;;;;;;;;;;5036876;28;20412;-80
2021/11/26 05:51:03;;;;;;;30.35;16.80;;;;;;;;;;5036587;28;20204;-79
2021/11/26 05:53:29;;;;;;;28.90;16.52;;;;;;;;;;5036851;28;20167;-79
2021/11/26 05:55:59;;;;;;;27.40;18.13;;;;;;;;;;5036816;28;20661;-79
2021/11/26 05:58:28;;;;;;;27.10;16.42;;;;;;;;;;5035835;28;20182;-79
2021/11/26 06:00:54;;;;;;;24.60;15.80;;;;;;;;;;5036423;28;20614;-80
2021/11/26 06:03:21;;;;;;;33.35;16.95;;;;;;;;;;5036420;28;20181;-80
2021/11/26 06:05:46;;;;;;;26.67;16.90;;;;;;;;;;5036091;28;20297;-79
2021/11/26 06:08:12;;;;;;;22.87;16.83;;;;;;;;;;5035954;28;20272;-80
2021/11/26 06:10:38;;;;;;;22.63;16.17;;;;;;;;;;5034451;28;20427;-81
2021/11/26 06:13:04;;;;;;;18.80;14.40;;;;;;;;;;5035984;28;20820;-80
2021/11/26 06:15:30;;;;;;;17.23;14.40;;;;;;;;;;5034788;28;20217;-80
2021/11/26 06:17:56;;;;;;;21.35;15.48;;;;;;;;;;5035606;28;20237;-81
2021/11/26 06:20:23;;;;;;;19.27;14.45;;;;;;;;;;5035171;28;20197;-80
2021/11/26 06:22:49;;;;;;;18.45;13.50;;;;;;;;;;5034343;28;20271;-82
2021/11/26 06:25:17;;;;;;;20.02;13.98;;;;;;;;;;5034313;28;20216;-81
2021/11/26 06:27:43;;;;;;;20.20;13.20;;;;;;;;;;5035656;28;20170;-81
2021/11/26 06:30:11;;;;;;;15.20;11.63;;;;;;;;;;5033941;28;20567;-81
2021/11/26 06:32:37;;;;;;;19.17;12.43;;;;;;;;;;5035498;28;20165;-82
2021/11/26 06:35:03;;;;;;;16.45;11.60;;;;;;;;;;5035387;28;20214;-81
2021/11/26 06:37:29;;;;;;;20.00;11.32;;;;;;;;;;5035518;28;20518;-80
2021/11/26 06:39:55;;;;;;;14.65;12.05;;;;;;;;;;5033817;28;20783;-81
2021/11/26 06:42:21;;;;;;;18.25;11.77;;;;;;;;;;5034197;28;20221;-79
2021/11/26 06:44:47;;;;;;;15.23;10.43;;;;;;;;;;5035261;28;20291;-80
2021/11/26 06:47:13;;;;;;;19.67;11.05;;;;;;;;;;5035447;28;20648;-83
2021/11/26 06:49:39;;;;;;;13.05;10.20;;;;;;;;;;5035013;28;20214;-81
2021/11/26 06:52:05;;;;;;;14.88;10.02;;;;;;;;;;5035182;28;20263;-82
2021/11/26 06:54:31;;;;;;;14.75;10.65;;;;;;;;;;5033950;28;20182;-80
2021/11/26 06:56:57;;;;;;;16.37;10.07;;;;;;;;;;5035074;28;20227;-82
2021/11/26 06:59:23;;;;;;;13.93;9.07;;;;;;;;;;5034771;28;20413;-83
2021/11/26 07:01:49;;;;;;;12.43;8.82;;;;;;;;;;5033684;28;20216;-79
2021/11/26 07:04:16;;;;;;;13.13;8.82;;;;;;;;;;5033616;28;20190;-82
2021/11/26 07:06:42;;;;;;;16.02;9.35;;;;;;;;;;5034935;28;20207;-83
2021/11/26 07:09:08;;;;;;;11.65;7.90;;;;;;;;;;5017141;28;20182;-82
2021/11/26 07:11:34;;;;;;;12.65;8.93;;;;;;;;;;5034476;28;20204;-80
2021/11/26 07:14:00;;;;;;;12.93;8.60;;;;;;;;;;5034951;28;20184;-83
2021/11/26 07:16:26;;;;;;;12.90;9.30;;;;;;;;;;5033426;28;20654;-80
2021/11/26 07:18:52;;;;;;;15.33;9.87;;;;;;;;;;5033527;28;20189;-83
2021/11/26 07:21:18;;;;;;;15.88;9.93;;;;;;;;;;5034113;28;20433;-82
2021/11/26 07:23:44;;;;;;;14.07;10.10;;;;;;;;;;5034500;28;20194;-81
2021/11/26 07:26:11;;;;;;;12.65;8.90;;;;;;;;;;5034459;28;20201;-81
2021/11/26 07:28:37;;;;;;;11.80;8.82;;;;;;;;;;5033263;28;20220;-83
2021/11/26 07:31:03;;;;;;;10.73;8.77;;;;;;;;;;5034046;28;20197;-81
2021/11/26 07:33:29;;;;;;;11.77;7.90;;;;;;;;;;5032765;28;20204;-79
2021/11/26 07:35:55;;;;;;;14.50;8.63;;;;;;;;;;5034285;28;20184;-82
2021/11/26 07:38:21;;;;;;;12.35;8.65;;;;;;;;;;5034401;28;20181;-83
2021/11/26 07:40:49;;;;;;;13.70;8.43;;;;;;;;;;5033905;28;20197;-80
2021/11/26 07:43:15;;;;;;;11.27;8.60;;;;;;;;;;5033085;28;20283;-79
2021/11/26 07:45:41;;;;;;;10.57;8.23;;;;;;;;;;5032959;28;20243;-82
2021/11/26 07:48:07;;;;;;;12.52;8.50;;;;;;;;;;5016481;28;20606;-82
2021/11/26 07:50:33;;;;;;;11.70;7.90;;;;;;;;;;5033797;28;20594;-82
2021/11/26 07:52:59;;;;;;;12.15;8.95;;;;;;;;;;5034082;28;20177;-81
2021/11/26 07:55:25;;;;;;;9.95;8.25;;;;;;;;;;5034009;28;20185;-81
2021/11/26 07:57:52;;;;;;;14.35;8.65;;;;;;;;;;5033922;28;20192;-81
2021/11/26 08:00:18;;;;;;;14.73;8.88;;;;;;;;;;5033564;28;20218;-80
2021/11/26 08:02:44;;;;;;;15.57;8.50;;;;;;;;;;5032804;28;20173;-83
2021/11/26 08:05:10;;;;;;;9.30;7.15;;;;;;;;;;5033728;28;20248;-80
2021/11/26 08:07:37;;;;;;;12.85;8.32;;;;;;;;;;5033907;28;20177;-81
2021/11/26 08:10:08;;;;;;;10.40;8.10;;;;;;;;;;5033585;28;20201;-80
2021/11/26 08:12:34;;;;;;;13.98;8.20;;;;;;;;;;5033801;28;20158;-79
2021/11/26 08:15:00;;;;;;;10.18;8.32;;;;;;;;;;5033819;28;20524;-80
2021/11/26 08:17:26;;;;;;;12.60;7.00;;;;;;;;;;5033488;28;20194;-81
2021/11/26 08:19:52;;;;;;;12.20;9.40;;;;;;;;;;5033136;28;20263;-82
2021/11/26 08:22:18;;;;;;;17.15;9.00;;;;;;;;;;5033524;28;20505;-82
2021/11/26 08:24:44;;;;;;;13.13;8.47;;;;;;;;;;5033493;28;20296;-82
2021/11/26 08:27:10;;;;;;;15.02;8.98;;;;;;;;;;5033549;28;20447;-81
2021/11/26 08:29:36;;;;;;;12.90;9.40;;;;;;;;;;5033855;28;20200;-80
2021/11/26 08:32:02;;;;;;;23.75;12.20;;;;;;;;;;5047330;28;20269;-82
2021/11/26 08:34:28;;;;;;;19.15;10.27;;;;;;;;;;5044662;28;20243;-83
2021/11/26 08:36:54;;;;;;;24.37;10.90;;;;;;;;;;5053271;28;20177;-80
2021/11/26 08:39:20;;;;;;;14.85;11.05;;;;;;;;;;5053055;28;20404;-79
2021/11/26 08:41:46;;;;;;;19.70;12.75;;;;;;;;;;5053157;28;20549;-81
2021/11/26 08:44:12;;;;;;;19.63;10.05;;;;;;;;;;5053256;28;20647;-82
2021/11/26 08:46:38;;;;;;;18.10;10.80;;;;;;;;;;5052346;28;20271;-81
2021/11/26 08:49:04;;;;;;;23.40;11.18;;;;;;;;;;5053023;28;20784;-79
2021/11/26 08:51:35;;;;;;;16.83;10.80;;;;;;;;;;5053052;28;20213;-82
2021/11/26 08:54:01;;;;;;;21.02;10.10;;;;;;;;;;5053274;28;20184;-80
2021/11/26 08:56:28;;;;;;;17.00;10.85;;;;;;;;;;5053211;28;20231;-81
2021/11/26 08:58:54;;;;;;;25.45;10.25;;;;;;;;;;5051918;28;20666;-82
2021/11/26 09:01:20;;;;;;;20.15;10.02;;;;;;;;;;5052732;28;20193;-82
2021/11/26 09:03:46;;;;;;;15.02;10.10;;;;;;;;;;5053189;28;20564;-79
2021/11/26 09:06:15;;;;;;;24.10;11.68;;;;;;;;;;5051671;28;20252;-79
2021/11/26 09:08:41;;;;;;;19.80;11.65;;;;;;;;;;5052900;28;20193;-81
2021/11/26 09:11:07;;;;;;;25.48;12.27;;;;;;;;;;5052715;28;20232;-80
2021/11/26 09:13:33;;;;;;;22.83;11.80;;;;;;;;;;5052796;28;20264;-79
2021/11/26 09:15:59;;;;;;;22.20;13.27;;;;;;;;;;5052635;28;20814;-81
2021/11/26 09:18:27;;;;;;;27.33;12.13;;;;;;;;;;5051602;28;20180;-81
2021/11/26 09:20:53;;;;;;;28.40;13.27;;;;;;;;;;5051246;28;20534;-79
2021/11/26 09:23:20;;;;;;;27.95;12.55;;;;;;;;;;5052867;28;20177;-80
2021/11/26 09:25:46;;;;;;;28.50;12.65;;;;;;;;;;5052663;28;20543;-80
2021/11/26 09:28:12;;;;;;;33.90;14.32;;;;;;;;;;5052614;28;20177;-79
2021/11/26 09:30:38;;;;;;;25.75;13.65;;;;;;;;;;5052186;28;20263;-80
2021/11/26 09:33:06;;;;;;;27.83;14.52;;;;;;;;;;5052745;28;20579;-81
2021/11/26 09:35:32;;;;;;;30.98;13.00;;;;;;;;;;5052646;28;20270;-81
2021/11/26 09:37:59;;;;;;;31.40;12.80;;;;;;;;;;5046101;28;20646;-78
2021/11/26 09:40:25;;;;;;;26.02;13.32;;;;;;;;;;5043110;28;20328;-80
2021/11/26 09:42:51;;;;;;;25.70;13.30;;;;;;;;;;5040392;28;20206;-79
2021/11/26 09:45:21;;;;;;;28.50;14.27;;;;;;;;;;5039943;28;20768;-80
2021/11/26 09:47:48;;;;;;;22.77;11.00;;;;;;;;;;5032755;28;20909;-80
2021/11/26 09:50:14;;;;;;;29.15;11.85;;;;;;;;;;5032273;28;20201;-80
2021/11/26 09:52:42;;;;;;;22.20;11.30;;;;;;;;;;5031423;28;20185;-80
2021/11/26 09:55:09;;;;;;;17.92;9.63;;;;;;;;;;5031368;28;20187;-80
2021/11/26 09:57:36;;;;;;;26.35;11.02;;;;;;;;;;5034772;28;20263;-81
2021/11/26 10:00:03;;;;;;;23.33;10.10;;;;;;;;;;5035796;28;20190;-79
2021/11/26 10:02:29;;;;;;;21.90;10.60;;;;;;;;;;5036092;28;20178;-80
2021/11/26 10:05:04;;;;;;;28.17;10.03;;;;;;;;;;5036009;28;20202;-78
2021/11/26 10:07:31;;;;;;;16.25;8.77;;;;;;;;;;5036175;28;20422;-78
2021/11/26 10:10:07;;;;;;;15.15;8.75;;;;;;;;;;5035648;28;20194;-78
2021/11/26 10:12:33;;;;;;;16.60;7.70;;;;;;;;;;5034738;28;20186;-80
2021/11/26 10:14:59;;;;;;;11.70;5.47;;;;;;;;;;5034873;28;20232;-80
2021/11/26 10:17:25;;;;;;;24.40;7.65;;;;;;;;;;5035842;28;20440;-79
2021/11/26 10:19:55;;;;;;;16.50;7.95;;;;;;;;;;5035564;28;20179;-79
2021/11/26 10:22:21;;;;;;;17.38;7.70;;;;;;;;;;5035809;28;20172;-80
2021/11/26 10:25:03;;;;;;;16.85;7.75;;;;;;;;;;5035495;28;20205;-79
2021/11/26 10:27:47;;;;;;;17.40;7.93;;;;;;;;;;5034396;28;20181;-78
2021/11/26 10:30:15;;;;;;;13.20;7.25;;;;;;;;;;5035298;28;20236;-79
2021/11/26 10:32:51;;;;;;;20.90;7.82;;;;;;;;;;5035599;28;20185;-80
2021/11/26 10:35:17;;;;;;;8.65;4.63;;;;;;;;;;5035556;28;20196;-80
2021/11/26 10:37:43;;;;;;;16.08;6.72;;;;;;;;;;5035332;28;20193;-80
2021/11/26 10:40:19;;;;;;;9.73;5.03;;;;;;;;;;5034982;28;20227;-79
2021/11/26 10:42:45;;;;;;;9.57;6.60;;;;;;;;;;5035185;28;20174;-80
2021/11/26 10:45:19;;;;;;;12.50;6.13;;;;;;;;;;5035101;28;20207;-78
2021/11/26 10:48:05;;;;;;;11.00;5.90;;;;;;;;;;5035342;28;20407;-79
2021/11/26 10:58:33;;;;;;;12.52;5.30;;;;;;;;;;5035486;28;20523;-79
2021/11/26 11:01:07;;;;;;;11.35;5.70;;;;;;;;;;5037475;28;20202;-80
2021/11/26 11:03:34;;;;;;;9.40;5.20;;;;;;;;;;5035533;28;20256;-79
2021/11/26 11:06:00;;;;;;;14.73;4.60;;;;;;;;;;5035110;28;20583;-79
2021/11/26 11:08:26;;;;;;;13.23;4.57;;;;;;;;;;5034008;28;20274;-79
2021/11/26 11:10:53;;;;;;;8.13;3.78;;;;;;;;;;5034514;28;20651;-79
2021/11/26 11:13:28;;;;;;;8.05;4.18;;;;;;;;;;5034883;28;20181;-79
2021/11/26 11:16:03;;;;;;;11.10;3.55;;;;;;;;;;5034684;28;20254;-79
2021/11/26 11:18:29;;;;;;;5.03;3.35;;;;;;;;;;5040477;28;20195;-78
2021/11/26 11:20:55;;;;;;;8.93;3.33;;;;;;;;;;5042074;28;20212;-80
2021/11/26 11:23:21;;;;;;;5.38;3.38;;;;;;;;;;5042320;28;20503;-79
2021/11/26 11:26:17;;;;;;;3.78;1.88;;;;;;;;;;5044843;28;20205;-81
2021/11/26 11:28:44;;;;;;;8.35;3.22;;;;;;;;;;5038746;28;20193;-79
2021/11/26 11:31:10;;;;;;;17.80;3.85;;;;;;;;;;5045094;28;20191;-78
2021/11/26 11:33:36;;;;;;;7.20;3.03;;;;;;;;;;5042017;28;20188;-78
2021/11/26 11:36:04;;;;;;;12.68;4.13;;;;;;;;;;5044739;28;20256;-79
2021/11/26 11:38:29;;;;;;;4.95;2.30;;;;;;;;;;5044628;28;20177;-80
2021/11/26 11:41:00;;;;;;;7.10;2.42;;;;;;;;;;5044391;28;20737;-79
2021/11/26 11:43:26;;;;;;;6.45;2.70;;;;;;;;;;5047115;28;20177;-81
2021/11/26 11:46:02;;;;;;;5.80;2.20;;;;;;;;;;5050023;28;20285;-80
2021/11/26 11:48:29;;;;;;;6.82;2.78;;;;;;;;;;5034197;28;20177;-81
2021/11/26 11:50:55;;;;;;;5.05;2.65;;;;;;;;;;5033785;28;20208;-79
2021/11/26 11:53:29;;;;;;;6.30;2.67;;;;;;;;;;5034402;28;20177;-79
2021/11/26 11:56:03;;;;;;;5.03;2.25;;;;;;;;;;5034259;28;20174;-79
2021/11/26 11:58:37;;;;;;;7.15;2.40;;;;;;;;;;5032887;28;20193;-80
2021/11/26 12:01:03;;;;;;;3.97;2.22;;;;;;;;;;5033965;28;20185;-79
2021/11/26 12:03:29;;;;;;;4.20;2.60;;;;;;;;;;5033872;28;20192;-78
2021/11/26 12:05:57;;;;;;;7.05;2.63;;;;;;;;;;5033896;28;20269;-80
2021/11/26 12:08:23;;;;;;;5.22;2.17;;;;;;;;;;5033860;28;20184;-78
2021/11/26 12:10:52;;;;;;;3.83;2.13;;;;;;;;;;5033750;28;20198;-79
2021/11/26 12:13:29;;;;;;;2.35;1.50;;;;;;;;;;5032433;28;20182;-80
2021/11/26 12:16:10;;;;;;;3.90;2.17;;;;;;;;;;5039115;28;20195;-79
2021/11/26 12:18:42;;;;;;;3.55;1.90;;;;;;;;;;5053748;28;20204;-79
2021/11/26 12:21:09;;;;;;;8.45;1.88;;;;;;;;;;5052916;28;20195;-80
2021/11/26 12:26:55;;;;;;;3.60;1.35;;;;;;;;;;5052768;28;20217;-79
2021/11/26 12:29:22;;;;;;;4.20;1.90;;;;;;;;;;5053131;28;20182;-79
2021/11/26 12:31:51;;;;;;;3.67;2.00;;;;;;;;;;5051826;28;20197;-78
2021/11/26 12:34:19;;;;;;;4.15;2.10;;;;;;;;;;5053439;28;20649;-79
2021/11/26 12:36:47;;;;;;;5.88;1.70;;;;;;;;;;5053057;28;20260;-80
2021/11/26 12:39:33;;;;;;;3.50;2.03;;;;;;;;;;5052635;28;20173;-79
2021/11/26 12:42:00;;;;;;;11.02;2.30;;;;;;;;;;5053124;28;20698;-78
2021/11/26 12:44:35;;;;;;;7.32;2.17;;;;;;;;;;5053180;28;20179;-79
2021/11/26 12:47:03;;;;;;;6.07;2.08;;;;;;;;;;5053386;28;20169;-79
2021/11/26 12:52:02;;;;;;;5.38;2.20;;;;;;;;;;5052986;28;20200;-81
2021/11/26 12:54:28;;;;;;;6.13;2.20;;;;;;;;;;5051672;28;20248;-80
2021/11/26 12:56:54;;;;;;;5.25;2.47;;;;;;;;;;5041369;28;20801;-81
2021/11/26 12:59:31;;;;;;;4.88;2.08;;;;;;;;;;5032707;28;20232;-80
2021/11/26 13:01:57;;;;;;;9.13;2.22;;;;;;;;;;5032823;28;20181;-79
2021/11/26 13:04:23;;;;;;;6.05;1.45;;;;;;;;;;5033165;28;20225;-78
2021/11/26 13:06:50;;;;;;;4.57;1.92;;;;;;;;;;5032082;28;20182;-79
2021/11/26 13:09:16;;;;;;;7.75;2.20;;;;;;;;;;5033275;28;20199;-79
2021/11/26 13:11:44;;;;;;;3.38;2.30;;;;;;;;;;5033064;28;20710;-80
2021/11/26 13:14:10;;;;;;;4.45;2.72;;;;;;;;;;5032781;28;20170;-80
2021/11/26 13:16:37;;;;;;;3.13;1.60;;;;;;;;;;5032763;28;20193;-80
2021/11/26 13:19:10;;;;;;;6.25;2.42;;;;;;;;;;5031539;28;20202;-80
2021/11/26 13:21:36;;;;;;;4.78;2.00;;;;;;;;;;5032687;28;20222;-79
2021/11/26 13:24:04;;;;;;;7.32;1.77;;;;;;;;;;5032712;28;20523;-80
2021/11/26 13:26:30;;;;;;;5.75;2.13;;;;;;;;;;5032852;28;20202;-79
2021/11/26 13:28:56;;;;;;;3.33;1.70;;;;;;;;;;5032739;28;20197;-78
2021/11/26 13:31:30;;;;;;;4.45;2.08;;;;;;;;;;5032676;28;20201;-81
2021/11/26 13:33:59;;;;;;;2.55;1.30;;;;;;;;;;5036641;28;20196;-79
2021/11/26 13:36:32;;;;;;;3.97;1.70;;;;;;;;;;5035210;28;20722;-79
2021/11/26 13:39:11;;;;;;;6.40;1.88;;;;;;;;;;5035285;28;20182;-79
2021/11/26 13:41:38;;;;;;;5.93;2.25;;;;;;;;;;5036473;28;20587;-80
2021/11/26 13:44:12;;;;;;;4.32;2.03;;;;;;;;;;5036408;28;20643;-78
2021/11/26 13:46:46;;;;;;;3.08;1.85;;;;;;;;;;5036132;28;20247;-78
2021/11/26 13:49:13;;;;;;;4.68;2.00;;;;;;;;;;5036068;28;20624;-81
2021/11/26 13:51:46;;;;;;;4.72;1.85;;;;;;;;;;5036608;28;20198;-79
2021/11/26 13:54:13;;;;;;;3.80;2.20;;;;;;;;;;5036489;28;20175;-79
2021/11/26 13:56:40;;;;;;;8.32;2.75;;;;;;;;;;5036378;28;20171;-81
2021/11/26 13:59:08;;;;;;;8.30;2.08;;;;;;;;;;5040484;28;20655;-79
2021/11/26 14:01:35;;;;;;;7.18;2.10;;;;;;;;;;5055768;28;20201;-78
2021/11/26 14:04:03;;;;;;;5.43;2.13;;;;;;;;;;5050072;28;20186;-78
2021/11/26 14:06:30;;;;;;;6.20;1.70;;;;;;;;;;5049752;28;20215;-80
2021/11/26 14:08:57;;;;;;;2.45;1.60;;;;;;;;;;5055978;28;20196;-80
2021/11/26 14:11:29;;;;;;;3.97;1.80;;;;;;;;;;5055793;28;20201;-79
2021/11/26 14:13:56;;;;;;;4.32;2.00;;;;;;;;;;5055919;28;20180;-79
2021/11/26 14:16:23;;;;;;;7.88;2.33;;;;;;;;;;5055570;28;20244;-79
2021/11/26 14:18:51;;;;;;;6.97;1.75;;;;;;;;;;5055946;28;20170;-78
2021/11/26 14:21:17;;;;;;;5.80;1.88;;;;;;;;;;5055194;28;20205;-79
2021/11/26 14:23:53;;;;;;;6.43;1.92;;;;;;;;;;5055052;28;20231;-80
2021/11/26 14:26:19;;;;;;;5.10;1.67;;;;;;;;;;5055166;28;20240;-79
2021/11/26 14:28:47;;;;;;;6.55;2.25;;;;;;;;;;5055412;28;20179;-80
2021/11/26 14:31:13;;;;;;;3.97;2.00;;;;;;;;;;5055167;28;20189;-79
2021/11/26 14:33:39;;;;;;;6.82;2.05;;;;;;;;;;5055533;28;20178;-80
2021/11/26 14:36:09;;;;;;;9.88;2.60;;;;;;;;;;5054155;28;20188;-79
2021/11/26 14:38:54;;;;;;;3.22;2.80;;;;;;;;;;5055257;28;20204;-80
2021/11/26 14:41:21;;;;;;;4.03;1.88;;;;;;;;;;5054988;28;20226;-81
2021/11/26 14:43:48;;;;;;;6.05;2.03;;;;;;;;;;5054209;28;20234;-80